sensor_id;sensor_type;location;lat;lon;timestamp;pressure;altitude;pressure_sealevel;temperature;humidity
75247;BME280;63844;50.042;19.224;2023-06-22T00:00:57;99171.44;;;20.40;81.97
75247;BME280;63844;50.042;19.224;2023-06-22T00:03:31;99173.61;;;20.36;81.64
75247;BME280;63844;50.042;19.224;2023-06-22T00:05:57;99171.95;;;20.30;82.72
75247;BME280;63844;50.042;19.224;2023-06-22T00:08:24;99168.74;;;20.29;82.58
75247;BME280;63844;50.042;19.224;2023-06-22T00:10:50;99167.34;;;20.32;82.99
75247;BME280;63844;50.042;19.224;2023-06-22T00:13:17;99166.30;;;20.37;82.85
75247;BME280;63844;50.042;19.224;2023-06-22T00:15:44;99169.75;;;20.40;81.90
75247;BME280;63844;50.042;19.224;2023-06-22T00:18:11;99169.31;;;20.38;82.80
75247;BME280;63844;50.042;19.224;2023-06-22T00:20:39;99169.16;;;20.36;82.96
75247;BME280;63844;50.042;19.224;2023-06-22T00:23:06;99167.27;;;20.37;81.88
75247;BME280;63844;50.042;19.224;2023-06-22T00:25:37;99161.27;;;20.36;82.47
75247;BME280;63844;50.042;19.224;2023-06-22T00:28:04;99161.30;;;20.35;81.59
75247;BME280;63844;50.042;19.224;2023-06-22T00:30:31;99163.96;;;20.34;82.31
75247;BME280;63844;50.042;19.224;2023-06-22T00:32:58;99161.25;;;20.34;82.45
75247;BME280;63844;50.042;19.224;2023-06-22T00:35:26;99164.93;;;20.35;82.22
75247;BME280;63844;50.042;19.224;2023-06-22T00:37:56;99165.52;;;20.34;82.03
75247;BME280;63844;50.042;19.224;2023-06-22T00:40:31;99172.13;;;20.37;81.81
75247;BME280;63844;50.042;19.224;2023-06-22T00:42:59;99172.13;;;20.37;81.85
75247;BME280;63844;50.042;19.224;2023-06-22T00:45:26;99165.33;;;20.38;81.64
75247;BME280;63844;50.042;19.224;2023-06-22T00:47:54;99173.19;;;20.40;81.01
75247;BME280;63844;50.042;19.224;2023-06-22T00:50:24;99180.56;;;20.38;81.44
75247;BME280;63844;50.042;19.224;2023-06-22T00:52:53;99183.74;;;20.39;81.23
75247;BME280;63844;50.042;19.224;2023-06-22T00:55:20;99182.50;;;20.39;81.43
75247;BME280;63844;50.042;19.224;2023-06-22T00:57:48;99181.34;;;20.38;81.48
75247;BME280;63844;50.042;19.224;2023-06-22T01:00:15;99184.69;;;20.35;81.74
75247;BME280;63844;50.042;19.224;2023-06-22T01:02:46;99181.82;;;20.33;82.34
75247;BME280;63844;50.042;19.224;2023-06-22T01:05:14;99178.25;;;20.33;82.70
75247;BME280;63844;50.042;19.224;2023-06-22T01:07:56;99174.63;;;20.27;82.11
75247;BME280;63844;50.042;19.224;2023-06-22T01:10:32;99168.66;;;20.24;82.34
75247;BME280;63844;50.042;19.224;2023-06-22T01:13:14;99171.46;;;20.24;82.51
75247;BME280;63844;50.042;19.224;2023-06-22T01:16:02;99170.06;;;20.19;83.34
75247;BME280;63844;50.042;19.224;2023-06-22T01:18:31;99162.13;;;20.17;83.01
75247;BME280;63844;50.042;19.224;2023-06-22T01:20:58;99158.31;;;20.21;81.62
75247;BME280;63844;50.042;19.224;2023-06-22T01:23:53;99162.19;;;20.16;82.78
75247;BME280;63844;50.042;19.224;2023-06-22T01:26:38;99160.33;;;20.15;82.84
75247;BME280;63844;50.042;19.224;2023-06-22T01:29:06;99161.73;;;20.17;83.18
75247;BME280;63844;50.042;19.224;2023-06-22T01:31:34;99161.52;;;20.18;82.67
75247;BME280;63844;50.042;19.224;2023-06-22T01:34:05;99158.86;;;20.17;83.32
75247;BME280;63844;50.042;19.224;2023-06-22T01:36:33;99152.10;;;20.15;82.99
75247;BME280;63844;50.042;19.224;2023-06-22T01:39:02;99151.88;;;20.15;82.94
75247;BME280;63844;50.042;19.224;2023-06-22T01:41:37;99155.27;;;20.12;83.17
75247;BME280;63844;50.042;19.224;2023-06-22T01:44:07;99155.30;;;20.10;82.78
75247;BME280;63844;50.042;19.224;2023-06-22T01:46:36;99163.75;;;20.08;82.69
75247;BME280;63844;50.042;19.224;2023-06-22T01:49:04;99167.02;;;20.08;83.17
75247;BME280;63844;50.042;19.224;2023-06-22T01:51:31;99171.15;;;20.06;83.85
75247;BME280;63844;50.042;19.224;2023-06-22T01:53:57;99173.42;;;20.03;83.60
75247;BME280;63844;50.042;19.224;2023-06-22T01:56:25;99173.86;;;20.01;84.13
75247;BME280;63844;50.042;19.224;2023-06-22T01:59:04;99168.62;;;20.00;84.69
75247;BME280;63844;50.042;19.224;2023-06-22T02:01:37;99161.27;;;19.95;84.34
75247;BME280;63844;50.042;19.224;2023-06-22T02:04:10;99161.69;;;19.93;82.89
75247;BME280;63844;50.042;19.224;2023-06-22T02:06:39;99162.77;;;19.92;84.71
75247;BME280;63844;50.042;19.224;2023-06-22T02:09:12;99164.33;;;19.88;84.84
75247;BME280;63844;50.042;19.224;2023-06-22T02:11:42;99168.09;;;19.87;85.01
75247;BME280;63844;50.042;19.224;2023-06-22T02:14:10;99172.30;;;19.88;84.41
75247;BME280;63844;50.042;19.224;2023-06-22T02:16:38;99174.51;;;19.86;85.08
75247;BME280;63844;50.042;19.224;2023-06-22T02:19:05;99182.59;;;19.82;84.96
75247;BME280;63844;50.042;19.224;2023-06-22T02:21:32;99192.95;;;19.77;85.29
75247;BME280;63844;50.042;19.224;2023-06-22T02:23:58;99193.15;;;19.76;84.79
75247;BME280;63844;50.042;19.224;2023-06-22T02:26:25;99189.00;;;19.72;85.57
75247;BME280;63844;50.042;19.224;2023-06-22T02:28:52;99190.20;;;19.67;86.03
75247;BME280;63844;50.042;19.224;2023-06-22T02:31:19;99196.98;;;19.66;85.70
75247;BME280;63844;50.042;19.224;2023-06-22T02:33:46;99200.77;;;19.66;85.59
75247;BME280;63844;50.042;19.224;2023-06-22T02:36:14;99204.42;;;19.63;86.23
75247;BME280;63844;50.042;19.224;2023-06-22T02:38:41;99203.42;;;19.62;85.56
75247;BME280;63844;50.042;19.224;2023-06-22T02:41:16;99205.29;;;19.65;85.24
75247;BME280;63844;50.042;19.224;2023-06-22T02:43:46;99206.31;;;19.66;85.96
75247;BME280;63844;50.042;19.224;2023-06-22T02:46:13;99209.43;;;19.62;86.72
75247;BME280;63844;50.042;19.224;2023-06-22T02:48:40;99211.08;;;19.59;86.95
75247;BME280;63844;50.042;19.224;2023-06-22T02:51:07;99211.51;;;19.59;85.01
75247;BME280;63844;50.042;19.224;2023-06-22T02:53:34;99210.14;;;19.60;86.08
75247;BME280;63844;50.042;19.224;2023-06-22T02:56:02;99208.66;;;19.60;84.52
75247;BME280;63844;50.042;19.224;2023-06-22T02:58:32;99207.73;;;19.57;85.57
75247;BME280;63844;50.042;19.224;2023-06-22T03:01:05;99207.70;;;19.59;86.64
75247;BME280;63844;50.042;19.224;2023-06-22T03:03:32;99211.90;;;19.58;87.02
75247;BME280;63844;50.042;19.224;2023-06-22T03:05:58;99217.13;;;19.58;86.67
75247;BME280;63844;50.042;19.224;2023-06-22T03:08:27;99217.98;;;19.59;86.02
75247;BME280;63844;50.042;19.224;2023-06-22T03:10:54;99217.91;;;19.56;86.50
75247;BME280;63844;50.042;19.224;2023-06-22T03:13:20;99220.09;;;19.51;87.05
75247;BME280;63844;50.042;19.224;2023-06-22T03:15:47;99230.37;;;19.49;87.25
75247;BME280;63844;50.042;19.224;2023-06-22T03:18:13;99235.70;;;19.52;85.77
75247;BME280;63844;50.042;19.224;2023-06-22T03:20:41;99236.69;;;19.53;86.14
75247;BME280;63844;50.042;19.224;2023-06-22T03:23:08;99237.83;;;19.52;86.25
75247;BME280;63844;50.042;19.224;2023-06-22T03:25:35;99237.80;;;19.49;86.31
75247;BME280;63844;50.042;19.224;2023-06-22T03:28:01;99241.09;;;19.50;86.38
75247;BME280;63844;50.042;19.224;2023-06-22T03:30:28;99244.05;;;19.51;86.00
75247;BME280;63844;50.042;19.224;2023-06-22T03:32:54;99243.29;;;19.51;85.85
75247;BME280;63844;50.042;19.224;2023-06-22T03:35:21;99245.56;;;19.54;85.97
75247;BME280;63844;50.042;19.224;2023-06-22T03:37:47;99248.52;;;19.55;85.81
75247;BME280;63844;50.042;19.224;2023-06-22T03:40:14;99247.92;;;19.57;85.61
75247;BME280;63844;50.042;19.224;2023-06-22T03:42:40;99250.01;;;19.58;85.11
75247;BME280;63844;50.042;19.224;2023-06-22T03:45:07;99255.30;;;19.59;85.25
75247;BME280;63844;50.042;19.224;2023-06-22T03:47:34;99256.41;;;19.61;85.19
75247;BME280;63844;50.042;19.224;2023-06-22T03:50:01;99252.08;;;19.66;84.70
75247;BME280;63844;50.042;19.224;2023-06-22T03:52:29;99248.75;;;19.69;84.80
75247;BME280;63844;50.042;19.224;2023-06-22T03:54:56;99247.97;;;19.71;84.60
75247;BME280;63844;50.042;19.224;2023-06-22T03:57:23;99249.30;;;19.74;84.81
75247;BME280;63844;50.042;19.224;2023-06-22T03:59:49;99249.19;;;19.77;84.13
75247;BME280;63844;50.042;19.224;2023-06-22T04:02:16;99243.96;;;19.76;84.32
75247;BME280;63844;50.042;19.224;2023-06-22T04:04:42;99242.17;;;19.79;83.84
75247;BME280;63844;50.042;19.224;2023-06-22T04:07:09;99244.38;;;19.81;84.07
75247;BME280;63844;50.042;19.224;2023-06-22T04:09:35;99245.54;;;19.83;83.76
75247;BME280;63844;50.042;19.224;2023-06-22T04:12:02;99246.98;;;19.81;84.26
75247;BME280;63844;50.042;19.224;2023-06-22T04:14:28;99252.39;;;19.83;84.13
75247;BME280;63844;50.042;19.224;2023-06-22T04:16:55;99254.28;;;19.89;83.73
75247;BME280;63844;50.042;19.224;2023-06-22T04:19:21;99263.14;;;19.88;83.72
75247;BME280;63844;50.042;19.224;2023-06-22T04:21:48;99263.17;;;19.92;84.01
75247;BME280;63844;50.042;19.224;2023-06-22T04:24:15;99268.52;;;19.95;83.88
75247;BME280;63844;50.042;19.224;2023-06-22T04:26:42;99267.27;;;19.98;84.09
75247;BME280;63844;50.042;19.224;2023-06-22T04:29:11;99261.05;;;20.00;83.78
75247;BME280;63844;50.042;19.224;2023-06-22T04:31:38;99258.35;;;20.06;83.79
75247;BME280;63844;50.042;19.224;2023-06-22T04:34:05;99255.09;;;20.10;83.73
75247;BME280;63844;50.042;19.224;2023-06-22T04:36:36;99257.51;;;20.14;83.41
75247;BME280;63844;50.042;19.224;2023-06-22T04:39:08;99255.86;;;20.21;83.33
75247;BME280;63844;50.042;19.224;2023-06-22T04:41:36;99260.17;;;20.27;83.24
75247;BME280;63844;50.042;19.224;2023-06-22T04:44:17;99264.91;;;20.33;83.23
75247;BME280;63844;50.042;19.224;2023-06-22T04:46:55;99267.48;;;20.38;83.07
75247;BME280;63844;50.042;19.224;2023-06-22T04:49:27;99265.30;;;20.46;82.99
75247;BME280;63844;50.042;19.224;2023-06-22T04:52:06;99261.70;;;20.47;83.14
75247;BME280;63844;50.042;19.224;2023-06-22T04:54:35;99266.52;;;20.49;83.13
75247;BME280;63844;50.042;19.224;2023-06-22T04:57:03;99266.73;;;20.49;83.16
75247;BME280;63844;50.042;19.224;2023-06-22T04:59:30;99266.20;;;20.52;83.04
75247;BME280;63844;50.042;19.224;2023-06-22T05:01:58;99274.13;;;20.61;82.95
75247;BME280;63844;50.042;19.224;2023-06-22T05:04:26;99278.04;;;20.67;82.83
75247;BME280;63844;50.042;19.224;2023-06-22T05:06:54;99281.30;;;20.70;82.57
75247;BME280;63844;50.042;19.224;2023-06-22T05:09:21;99284.94;;;20.75;82.49
75247;BME280;63844;50.042;19.224;2023-06-22T05:11:47;99281.72;;;20.76;82.39
75247;BME280;63844;50.042;19.224;2023-06-22T05:14:14;99284.91;;;20.78;82.36
75247;BME280;63844;50.042;19.224;2023-06-22T05:16:44;99286.09;;;20.81;82.45
75247;BME280;63844;50.042;19.224;2023-06-22T05:19:11;99293.66;;;20.88;82.27
75247;BME280;63844;50.042;19.224;2023-06-22T05:21:38;99294.66;;;20.94;82.45
75247;BME280;63844;50.042;19.224;2023-06-22T05:24:05;99292.50;;;20.99;82.01
75247;BME280;63844;50.042;19.224;2023-06-22T05:26:33;99293.71;;;21.03;81.85
75247;BME280;63844;50.042;19.224;2023-06-22T05:29:01;99297.58;;;21.05;81.88
75247;BME280;63844;50.042;19.224;2023-06-22T05:31:29;99294.71;;;21.08;81.78
75247;BME280;63844;50.042;19.224;2023-06-22T05:33:56;99294.49;;;21.12;81.58
75247;BME280;63844;50.042;19.224;2023-06-22T05:36:22;99296.27;;;21.18;81.40
75247;BME280;63844;50.042;19.224;2023-06-22T05:38:52;99299.16;;;21.21;81.50
75247;BME280;63844;50.042;19.224;2023-06-22T05:41:19;99308.25;;;21.30;81.08
75247;BME280;63844;50.042;19.224;2023-06-22T05:43:46;99303.83;;;21.31;81.06
75247;BME280;63844;50.042;19.224;2023-06-22T05:46:12;99305.70;;;21.33;80.95
75247;BME280;63844;50.042;19.224;2023-06-22T05:48:39;99302.59;;;21.40;81.00
75247;BME280;63844;50.042;19.224;2023-06-22T05:51:05;99308.83;;;21.49;80.52
75247;BME280;63844;50.042;19.224;2023-06-22T05:53:31;99314.56;;;21.59;80.50
75247;BME280;63844;50.042;19.224;2023-06-22T05:55:58;99319.43;;;21.69;80.26
75247;BME280;63844;50.042;19.224;2023-06-22T05:58:24;99321.15;;;21.81;79.91
75247;BME280;63844;50.042;19.224;2023-06-22T06:00:51;99320.07;;;21.84;79.59
75247;BME280;63844;50.042;19.224;2023-06-22T06:03:17;99317.59;;;21.77;79.53
75247;BME280;63844;50.042;19.224;2023-06-22T06:05:44;99321.21;;;21.78;79.45
75247;BME280;63844;50.042;19.224;2023-06-22T06:08:11;99324.19;;;21.84;79.85
75247;BME280;63844;50.042;19.224;2023-06-22T06:10:38;99329.14;;;21.98;79.28
75247;BME280;63844;50.042;19.224;2023-06-22T06:13:05;99331.11;;;22.05;78.96
75247;BME280;63844;50.042;19.224;2023-06-22T06:15:32;99331.38;;;22.12;78.68
75247;BME280;63844;50.042;19.224;2023-06-22T06:17:59;99327.39;;;22.25;78.89
75247;BME280;63844;50.042;19.224;2023-06-22T06:20:26;99322.73;;;22.37;78.18
75247;BME280;63844;50.042;19.224;2023-06-22T06:22:54;99317.19;;;22.37;78.09
75247;BME280;63844;50.042;19.224;2023-06-22T06:25:20;99313.23;;;22.42;78.01
75247;BME280;63844;50.042;19.224;2023-06-22T06:27:50;99319.27;;;22.56;77.61
75247;BME280;63844;50.042;19.224;2023-06-22T06:30:18;99321.59;;;22.64;77.38
75247;BME280;63844;50.042;19.224;2023-06-22T06:32:46;99322.52;;;22.72;77.32
75247;BME280;63844;50.042;19.224;2023-06-22T06:35:14;99324.77;;;22.78;77.03
75247;BME280;63844;50.042;19.224;2023-06-22T06:37:43;99320.96;;;22.70;76.42
75247;BME280;63844;50.042;19.224;2023-06-22T06:40:11;99319.67;;;22.75;76.95
75247;BME280;63844;50.042;19.224;2023-06-22T06:42:39;99317.42;;;22.87;76.75
75247;BME280;63844;50.042;19.224;2023-06-22T06:45:08;99315.79;;;22.87;76.49
75247;BME280;63844;50.042;19.224;2023-06-22T06:47:35;99310.01;;;22.90;76.39
75247;BME280;63844;50.042;19.224;2023-06-22T06:50:04;99303.48;;;22.84;76.62
75247;BME280;63844;50.042;19.224;2023-06-22T06:52:31;99301.61;;;22.91;76.38
75247;BME280;63844;50.042;19.224;2023-06-22T06:54:57;99302.46;;;22.86;76.41
75247;BME280;63844;50.042;19.224;2023-06-22T06:57:24;99307.18;;;22.77;76.67
75247;BME280;63844;50.042;19.224;2023-06-22T06:59:55;99308.69;;;22.73;77.03
75247;BME280;63844;50.042;19.224;2023-06-22T07:02:23;99305.17;;;22.80;76.95
75247;BME280;63844;50.042;19.224;2023-06-22T07:04:50;99302.52;;;23.02;75.84
75247;BME280;63844;50.042;19.224;2023-06-22T07:07:16;99295.41;;;23.13;75.22
75247;BME280;63844;50.042;19.224;2023-06-22T07:09:43;99305.16;;;23.24;75.40
75247;BME280;63844;50.042;19.224;2023-06-22T07:12:09;99298.36;;;23.47;75.12
75247;BME280;63844;50.042;19.224;2023-06-22T07:14:36;99299.06;;;23.69;74.16
75247;BME280;63844;50.042;19.224;2023-06-22T07:17:02;99297.49;;;23.80;73.74
75247;BME280;63844;50.042;19.224;2023-06-22T07:19:29;99298.39;;;23.87;73.35
75247;BME280;63844;50.042;19.224;2023-06-22T07:21:56;99298.41;;;24.01;72.96
75247;BME280;63844;50.042;19.224;2023-06-22T07:24:24;99297.05;;;24.00;72.52
75247;BME280;63844;50.042;19.224;2023-06-22T07:26:51;99293.61;;;23.97;72.97
75247;BME280;63844;50.042;19.224;2023-06-22T07:29:18;99293.67;;;24.00;73.19
75247;BME280;63844;50.042;19.224;2023-06-22T07:31:49;99303.46;;;24.19;72.48
75247;BME280;63844;50.042;19.224;2023-06-22T07:34:17;99306.70;;;24.27;71.56
75247;BME280;63844;50.042;19.224;2023-06-22T07:36:44;99310.30;;;24.29;71.22
75247;BME280;63844;50.042;19.224;2023-06-22T07:39:12;99313.45;;;24.37;70.60
75247;BME280;63844;50.042;19.224;2023-06-22T07:41:39;99316.08;;;24.29;69.97
75247;BME280;63844;50.042;19.224;2023-06-22T07:44:07;99312.37;;;24.41;70.01
75247;BME280;63844;50.042;19.224;2023-06-22T07:46:34;99314.88;;;24.46;69.39
75247;BME280;63844;50.042;19.224;2023-06-22T07:49:01;99314.63;;;24.51;69.41
75247;BME280;63844;50.042;19.224;2023-06-22T07:51:28;99320.11;;;24.61;69.04
75247;BME280;63844;50.042;19.224;2023-06-22T07:53:54;99318.16;;;24.62;68.78
75247;BME280;63844;50.042;19.224;2023-06-22T07:56:21;99315.69;;;24.59;68.91
75247;BME280;63844;50.042;19.224;2023-06-22T07:58:47;99318.15;;;24.64;69.11
75247;BME280;63844;50.042;19.224;2023-06-22T08:01:14;99315.56;;;24.69;68.89
75247;BME280;63844;50.042;19.224;2023-06-22T08:03:41;99314.73;;;24.69;68.46
75247;BME280;63844;50.042;19.224;2023-06-22T08:06:07;99318.67;;;24.65;68.23
75247;BME280;63844;50.042;19.224;2023-06-22T08:08:36;99319.16;;;24.88;68.72
75247;BME280;63844;50.042;19.224;2023-06-22T08:11:02;99315.27;;;25.07;68.35
75247;BME280;63844;50.042;19.224;2023-06-22T08:13:29;99320.41;;;25.32;66.91
75247;BME280;63844;50.042;19.224;2023-06-22T08:15:55;99321.19;;;25.24;65.64
75247;BME280;63844;50.042;19.224;2023-06-22T08:18:22;99322.75;;;25.23;65.17
75247;BME280;63844;50.042;19.224;2023-06-22T08:20:48;99321.58;;;25.16;65.62
75247;BME280;63844;50.042;19.224;2023-06-22T08:23:15;99320.09;;;25.33;66.15
75247;BME280;63844;50.042;19.224;2023-06-22T08:25:42;99323.61;;;25.60;65.75
75247;BME280;63844;50.042;19.224;2023-06-22T08:28:08;99323.33;;;25.67;64.43
75247;BME280;63844;50.042;19.224;2023-06-22T08:30:35;99329.23;;;25.62;64.88
75247;BME280;63844;50.042;19.224;2023-06-22T08:33:01;99330.37;;;25.64;64.55
75247;BME280;63844;50.042;19.224;2023-06-22T08:35:28;99329.34;;;25.82;64.61
75247;BME280;63844;50.042;19.224;2023-06-22T08:37:55;99323.91;;;25.67;64.29
75247;BME280;63844;50.042;19.224;2023-06-22T08:40:23;99324.55;;;25.54;64.39
75247;BME280;63844;50.042;19.224;2023-06-22T08:42:50;99323.55;;;25.39;64.07
75247;BME280;63844;50.042;19.224;2023-06-22T08:45:17;99326.46;;;25.28;64.59
75247;BME280;63844;50.042;19.224;2023-06-22T08:47:43;99324.34;;;25.54;64.19
75247;BME280;63844;50.042;19.224;2023-06-22T08:50:11;99324.05;;;25.74;63.69
75247;BME280;63844;50.042;19.224;2023-06-22T08:52:39;99321.16;;;25.98;63.01
75247;BME280;63844;50.042;19.224;2023-06-22T08:55:08;99324.60;;;26.06;62.43
75247;BME280;63844;50.042;19.224;2023-06-22T08:57:35;99327.16;;;26.15;61.96
75247;BME280;63844;50.042;19.224;2023-06-22T09:00:06;99329.77;;;25.96;60.99
75247;BME280;63844;50.042;19.224;2023-06-22T09:02:37;99333.61;;;25.91;63.02
75247;BME280;63844;50.042;19.224;2023-06-22T09:05:07;99339.02;;;25.92;63.41
75247;BME280;63844;50.042;19.224;2023-06-22T09:07:33;99334.93;;;25.98;63.53
75247;BME280;63844;50.042;19.224;2023-06-22T09:10:00;99336.08;;;26.02;62.00
75247;BME280;63844;50.042;19.224;2023-06-22T09:12:27;99332.79;;;26.13;61.59
75247;BME280;63844;50.042;19.224;2023-06-22T09:14:56;99328.42;;;26.36;60.59
75247;BME280;63844;50.042;19.224;2023-06-22T09:17:23;99326.61;;;26.43;59.73
75247;BME280;63844;50.042;19.224;2023-06-22T09:19:49;99327.11;;;26.40;59.73
75247;BME280;63844;50.042;19.224;2023-06-22T09:22:16;99326.49;;;26.57;60.45
75247;BME280;63844;50.042;19.224;2023-06-22T09:24:42;99327.14;;;26.85;61.05
75247;BME280;63844;50.042;19.224;2023-06-22T09:27:09;99322.92;;;26.93;60.83
75247;BME280;63844;50.042;19.224;2023-06-22T09:29:35;99317.75;;;27.08;59.33
75247;BME280;63844;50.042;19.224;2023-06-22T09:32:01;99310.10;;;27.11;59.07
75247;BME280;63844;50.042;19.224;2023-06-22T09:34:28;99307.45;;;27.37;59.76
75247;BME280;63844;50.042;19.224;2023-06-22T09:36:54;99310.23;;;27.34;59.12
75247;BME280;63844;50.042;19.224;2023-06-22T09:39:21;99308.05;;;26.95;58.17
75247;BME280;63844;50.042;19.224;2023-06-22T09:41:48;99301.57;;;26.62;60.03
75247;BME280;63844;50.042;19.224;2023-06-22T09:44:14;99300.77;;;26.77;59.72
75247;BME280;63844;50.042;19.224;2023-06-22T09:46:40;99293.84;;;26.70;59.88
75247;BME280;63844;50.042;19.224;2023-06-22T09:49:07;99299.51;;;26.66;60.34
75247;BME280;63844;50.042;19.224;2023-06-22T09:51:33;99299.80;;;26.66;59.85
75247;BME280;63844;50.042;19.224;2023-06-22T09:54:00;99296.71;;;26.52;60.44
75247;BME280;63844;50.042;19.224;2023-06-22T09:56:26;99293.56;;;26.72;60.25
75247;BME280;63844;50.042;19.224;2023-06-22T09:58:54;99288.02;;;26.84;60.05
75247;BME280;63844;50.042;19.224;2023-06-22T10:01:21;99279.95;;;27.11;59.68
75247;BME280;63844;50.042;19.224;2023-06-22T10:03:47;99281.40;;;27.29;58.27
75247;BME280;63844;50.042;19.224;2023-06-22T10:06:14;99280.46;;;27.35;58.15
75247;BME280;63844;50.042;19.224;2023-06-22T10:08:40;99285.31;;;27.24;56.92
75247;BME280;63844;50.042;19.224;2023-06-22T10:11:07;99289.34;;;27.24;56.85
75247;BME280;63844;50.042;19.224;2023-06-22T10:13:33;99281.15;;;27.15;57.45
75247;BME280;63844;50.042;19.224;2023-06-22T10:16:00;99277.09;;;27.14;56.62
75247;BME280;63844;50.042;19.224;2023-06-22T10:18:26;99272.78;;;27.33;57.03
75247;BME280;63844;50.042;19.224;2023-06-22T10:20:52;99273.90;;;27.30;56.63
75247;BME280;63844;50.042;19.224;2023-06-22T10:23:20;99272.98;;;27.45;55.59
75247;BME280;63844;50.042;19.224;2023-06-22T10:25:46;99275.56;;;27.47;54.14
75247;BME280;63844;50.042;19.224;2023-06-22T10:28:13;99273.64;;;27.59;53.86
75247;BME280;63844;50.042;19.224;2023-06-22T10:30:40;99270.89;;;27.89;54.70
75247;BME280;63844;50.042;19.224;2023-06-22T10:33:10;99265.23;;;27.91;54.41
75247;BME280;63844;50.042;19.224;2023-06-22T10:35:38;99265.86;;;28.14;54.93
75247;BME280;63844;50.042;19.224;2023-06-22T10:38:05;99266.58;;;28.19;53.22
75247;BME280;63844;50.042;19.224;2023-06-22T10:40:31;99263.23;;;28.01;54.34
75247;BME280;63844;50.042;19.224;2023-06-22T10:42:58;99258.02;;;28.21;54.94
75247;BME280;63844;50.042;19.224;2023-06-22T10:45:24;99250.69;;;28.47;54.25
75247;BME280;63844;50.042;19.224;2023-06-22T10:47:51;99246.59;;;28.67;54.58
75247;BME280;63844;50.042;19.224;2023-06-22T10:50:18;99248.93;;;28.73;52.08
75247;BME280;63844;50.042;19.224;2023-06-22T10:52:44;99246.64;;;28.69;51.66
75247;BME280;63844;50.042;19.224;2023-06-22T10:55:11;99245.76;;;28.74;51.93
75247;BME280;63844;50.042;19.224;2023-06-22T10:57:37;99247.27;;;28.60;50.55
75247;BME280;63844;50.042;19.224;2023-06-22T11:00:08;99244.67;;;28.43;51.31
75247;BME280;63844;50.042;19.224;2023-06-22T11:02:35;99240.65;;;28.53;51.46
75247;BME280;63844;50.042;19.224;2023-06-22T11:05:01;99237.98;;;28.33;50.52
75247;BME280;63844;50.042;19.224;2023-06-22T11:07:29;99235.84;;;28.35;50.57
75247;BME280;63844;50.042;19.224;2023-06-22T11:09:56;99231.33;;;28.38;51.29
75247;BME280;63844;50.042;19.224;2023-06-22T11:12:22;99229.22;;;28.55;51.96
75247;BME280;63844;50.042;19.224;2023-06-22T11:14:49;99227.77;;;28.35;50.53
75247;BME280;63844;50.042;19.224;2023-06-22T11:17:18;99224.61;;;28.24;51.42
75247;BME280;63844;50.042;19.224;2023-06-22T11:19:44;99224.46;;;28.52;50.62
75247;BME280;63844;50.042;19.224;2023-06-22T11:22:11;99226.21;;;28.59;49.49
75247;BME280;63844;50.042;19.224;2023-06-22T11:24:37;99231.59;;;28.59;48.84
75247;BME280;63844;50.042;19.224;2023-06-22T11:27:04;99226.09;;;28.54;48.40
75247;BME280;63844;50.042;19.224;2023-06-22T11:29:31;99226.80;;;28.30;47.74
75247;BME280;63844;50.042;19.224;2023-06-22T11:31:57;99226.39;;;28.58;49.08
75247;BME280;63844;50.042;19.224;2023-06-22T11:34:24;99229.23;;;28.74;47.77
75247;BME280;63844;50.042;19.224;2023-06-22T11:36:51;99231.98;;;28.61;47.11
75247;BME280;63844;50.042;19.224;2023-06-22T11:39:17;99228.20;;;28.60;47.10
75247;BME280;63844;50.042;19.224;2023-06-22T11:41:43;99229.68;;;28.53;46.59
75247;BME280;63844;50.042;19.224;2023-06-22T11:44:10;99218.71;;;28.71;46.94
75247;BME280;63844;50.042;19.224;2023-06-22T11:46:37;99216.55;;;28.82;46.65
75247;BME280;63844;50.042;19.224;2023-06-22T11:49:03;99210.97;;;28.92;46.51
75247;BME280;63844;50.042;19.224;2023-06-22T11:51:30;99207.46;;;28.70;45.90
75247;BME280;63844;50.042;19.224;2023-06-22T11:53:57;99213.63;;;28.50;44.94
75247;BME280;63844;50.042;19.224;2023-06-22T11:56:25;99211.10;;;28.52;45.69
75247;BME280;63844;50.042;19.224;2023-06-22T11:58:51;99207.94;;;28.81;46.04
75247;BME280;63844;50.042;19.224;2023-06-22T12:01:18;99203.36;;;28.93;45.33
75247;BME280;63844;50.042;19.224;2023-06-22T12:03:45;99199.56;;;28.99;45.35
75247;BME280;63844;50.042;19.224;2023-06-22T12:06:11;99195.14;;;29.16;45.64
75247;BME280;63844;50.042;19.224;2023-06-22T12:08:38;99195.67;;;29.32;45.20
75247;BME280;63844;50.042;19.224;2023-06-22T12:11:04;99195.34;;;29.37;44.63
75247;BME280;63844;50.042;19.224;2023-06-22T12:13:31;99192.45;;;29.37;44.02
75247;BME280;63844;50.042;19.224;2023-06-22T12:15:57;99186.23;;;29.56;44.83
75247;BME280;63844;50.042;19.224;2023-06-22T12:18:24;99181.45;;;29.75;43.76
75247;BME280;63844;50.042;19.224;2023-06-22T12:20:50;99186.63;;;29.68;42.53
75247;BME280;63844;50.042;19.224;2023-06-22T12:23:17;99181.95;;;29.55;42.40
75247;BME280;63844;50.042;19.224;2023-06-22T12:25:45;99181.84;;;29.66;42.74
75247;BME280;63844;50.042;19.224;2023-06-22T12:28:11;99178.22;;;29.75;42.00
75247;BME280;63844;50.042;19.224;2023-06-22T12:30:37;99175.03;;;29.78;42.06
75247;BME280;63844;50.042;19.224;2023-06-22T12:33:04;99169.75;;;29.97;42.43
75247;BME280;63844;50.042;19.224;2023-06-22T12:35:30;99165.40;;;30.14;41.51
75247;BME280;63844;50.042;19.224;2023-06-22T12:37:58;99164.37;;;30.23;39.53
75247;BME280;63844;50.042;19.224;2023-06-22T12:40:24;99157.88;;;30.28;39.25
75247;BME280;63844;50.042;19.224;2023-06-22T12:42:51;99157.05;;;30.32;39.45
75247;BME280;63844;50.042;19.224;2023-06-22T12:45:17;99154.02;;;30.24;40.93
75247;BME280;63844;50.042;19.224;2023-06-22T12:47:45;99149.75;;;30.69;40.14
75247;BME280;63844;50.042;19.224;2023-06-22T12:50:11;99145.09;;;30.71;39.86
75247;BME280;63844;50.042;19.224;2023-06-22T12:52:39;99141.63;;;30.68;41.24